createdAt,value
2017-11-05T00:00:50.162Z,27.37
2017-11-05T00:03:16.745Z,27.60
2017-11-05T00:05:42.939Z,26.73
2017-11-05T00:08:09.506Z,23.37
2017-11-05T00:10:36.384Z,24.80
2017-11-05T00:13:03.371Z,23.70
2017-11-05T00:15:29.620Z,23.47
2017-11-05T00:17:56.192Z,24.70
2017-11-05T00:20:23.189Z,24.50
2017-11-05T00:22:49.410Z,24.20
2017-11-05T00:25:15.610Z,23.90
2017-11-05T00:27:41.810Z,22.73
2017-11-05T00:30:08.030Z,23.70
2017-11-05T00:32:34.181Z,23.90
2017-11-05T00:35:01.247Z,23.73
2017-11-05T00:37:27.482Z,23.50
2017-11-05T00:39:53.703Z,25.43
2017-11-05T00:42:19.936Z,23.57
2017-11-05T00:44:47.007Z,25.90
2017-11-05T00:47:13.192Z,23.83
2017-11-05T00:49:39.361Z,23.37
2017-11-05T00:52:05.562Z,24.87
2017-11-05T00:54:31.768Z,26.83
2017-11-05T00:56:57.998Z,27.67
2017-11-05T00:59:24.180Z,25.77
2017-11-05T01:01:51.275Z,26.80
2017-11-05T01:04:17.554Z,27.10
2017-11-05T01:06:44.902Z,27.87
2017-11-05T01:18:51.131Z,26.77
2017-11-05T01:21:17.347Z,25.90
2017-11-05T01:23:43.715Z,26.67
2017-11-05T01:26:09.913Z,25.97
2017-11-05T01:28:36.866Z,26.80
2017-11-05T01:31:03.803Z,25.77
2017-11-05T01:33:32.995Z,27.90
2017-11-05T01:36:00.007Z,28.10
2017-11-05T01:38:27.923Z,26.73
2017-11-05T01:40:54.122Z,30.13
2017-11-05T01:43:20.313Z,26.67
2017-11-05T01:45:46.511Z,28.03
2017-11-05T01:48:13.074Z,26.50
2017-11-05T01:50:39.672Z,26.53
2017-11-05T01:53:05.850Z,29.80
2017-11-05T01:55:32.161Z,29.50
2017-11-05T01:57:59.045Z,28.83
2017-11-05T02:00:26.771Z,31.57
2017-11-05T02:02:53.044Z,29.00
2017-11-05T02:05:19.330Z,29.53
2017-11-05T02:07:46.354Z,29.13
2017-11-05T02:10:12.587Z,28.80
2017-11-05T02:12:38.828Z,30.70
2017-11-05T02:15:06.140Z,30.43
2017-11-05T02:17:32.415Z,32.07
2017-11-05T02:19:59.642Z,28.90
2017-11-05T02:22:26.285Z,30.40
2017-11-05T02:24:52.525Z,31.93
2017-11-05T02:27:19.449Z,31.13
2017-11-05T02:29:46.282Z,30.10
2017-11-05T02:32:12.475Z,30.50
2017-11-05T02:34:39.058Z,31.40
2017-11-05T02:37:05.698Z,32.80
2017-11-05T02:39:32.397Z,30.10
2017-11-05T02:41:58.562Z,31.20
2017-11-05T02:44:25.485Z,29.40
2017-11-05T02:46:52.619Z,30.67
2017-11-05T02:49:18.890Z,29.97
2017-11-05T02:51:45.131Z,30.07
2017-11-05T02:54:12.485Z,31.83
2017-11-05T02:56:39.102Z,29.40
2017-11-05T02:59:06.040Z,28.50
2017-11-05T03:01:32.295Z,28.67
2017-11-05T03:03:58.515Z,31.80
2017-11-05T03:06:25.128Z,27.00
2017-11-05T03:08:52.502Z,31.63
2017-11-05T03:11:19.117Z,32.77
2017-11-05T03:13:46.679Z,30.87
2017-11-05T03:16:15.687Z,30.80
2017-11-05T03:18:42.142Z,28.83
2017-11-05T03:21:08.344Z,28.37
2017-11-05T03:23:35.127Z,31.50
2017-11-05T03:26:03.280Z,27.70
2017-11-05T03:28:30.012Z,27.47
2017-11-05T03:30:56.960Z,29.63
2017-11-05T03:33:23.216Z,26.53
2017-11-05T03:35:49.601Z,29.10
2017-11-05T03:38:16.574Z,29.97
2017-11-05T03:40:42.799Z,29.50
2017-11-05T03:43:09.010Z,30.47
2017-11-05T03:45:35.198Z,31.33
2017-11-05T03:48:02.144Z,30.87
2017-11-05T03:50:29.119Z,28.50
2017-11-05T03:52:55.350Z,29.20
2017-11-05T03:55:21.647Z,30.30
2017-11-05T03:57:47.926Z,29.13
2017-11-05T04:00:14.171Z,31.87
2017-11-05T04:02:40.412Z,31.10
2017-11-05T04:05:07.012Z,32.00
2017-11-05T04:07:33.206Z,32.40
2017-11-05T04:09:59.911Z,33.53
2017-11-05T04:12:26.224Z,30.33
2017-11-05T04:14:52.494Z,30.73
2017-11-05T04:17:18.979Z,31.47
2017-11-05T04:19:45.215Z,31.43
2017-11-05T04:22:11.428Z,31.57
2017-11-05T04:24:38.617Z,31.93
2017-11-05T04:27:05.173Z,30.80
2017-11-05T04:29:32.320Z,29.43
2017-11-05T04:31:59.525Z,31.13
2017-11-05T04:34:27.446Z,29.13
2017-11-05T04:36:54.409Z,31.60
2017-11-05T04:39:20.680Z,30.33
2017-11-05T04:41:47.232Z,31.90
2017-11-05T04:44:13.495Z,30.07
2017-11-05T04:46:40.182Z,30.80
2017-11-05T04:49:07.178Z,29.20
2017-11-05T04:51:33.495Z,27.97
2017-11-05T04:54:00.952Z,27.97
2017-11-05T04:56:27.945Z,28.37
2017-11-05T04:58:54.545Z,27.20
2017-11-05T05:01:21.627Z,28.80
2017-11-05T05:03:48.753Z,28.03
2017-11-05T05:06:14.974Z,25.70
2017-11-05T05:08:41.933Z,26.50
2017-11-05T05:11:08.176Z,27.20
2017-11-05T05:13:34.715Z,25.83
2017-11-05T05:16:01.403Z,26.23
2017-11-05T05:18:27.887Z,24.57
2017-11-05T05:20:54.221Z,27.00
2017-11-05T05:23:20.436Z,26.83
2017-11-05T05:25:46.694Z,25.93
2017-11-05T05:28:12.933Z,26.77
2017-11-05T05:30:39.569Z,26.07
2017-11-05T05:33:06.177Z,25.43
2017-11-05T05:35:32.658Z,25.37
2017-11-05T05:37:59.540Z,26.67
2017-11-05T05:40:26.615Z,25.67
2017-11-05T05:52:32.948Z,23.67
2017-11-05T05:55:00.229Z,25.57
2017-11-05T05:57:27.085Z,25.10
2017-11-05T05:59:54.177Z,23.07
2017-11-05T06:02:20.390Z,24.40
2017-11-05T06:04:46.638Z,23.50
2017-11-05T06:07:13.230Z,25.23
2017-11-05T06:09:39.476Z,23.77
2017-11-05T06:12:06.220Z,22.80
2017-11-05T06:14:32.466Z,20.23
2017-11-05T06:16:58.705Z,20.67
2017-11-05T06:19:25.025Z,21.73
2017-11-05T06:21:51.274Z,23.50
2017-11-05T06:24:18.878Z,21.73
2017-11-05T06:26:47.591Z,22.30
2017-11-05T06:29:13.943Z,20.93
2017-11-05T06:31:41.582Z,20.57
2017-11-05T06:34:08.338Z,20.87
2017-11-05T06:36:34.568Z,21.73
2017-11-05T06:39:01.654Z,22.00
2017-11-05T06:41:27.901Z,18.60
2017-11-05T06:43:54.156Z,21.13
2017-11-05T06:46:20.418Z,19.80
2017-11-05T06:48:46.704Z,21.07
2017-11-05T06:51:12.930Z,21.03
2017-11-05T06:53:39.152Z,19.40
2017-11-05T06:56:06.135Z,20.87
2017-11-05T06:58:32.463Z,21.40
2017-11-05T07:01:01.151Z,18.93
2017-11-05T07:03:27.780Z,21.63
2017-11-05T07:05:54.030Z,21.73
2017-11-05T07:08:21.935Z,20.13
2017-11-05T07:10:48.176Z,18.83
2017-11-05T07:22:56.842Z,17.07
2017-11-05T07:25:23.066Z,19.03
2017-11-05T07:27:50.500Z,19.30
2017-11-05T07:30:16.715Z,19.27
2017-11-05T07:32:44.219Z,19.07
2017-11-05T07:35:11.213Z,19.10
2017-11-05T07:37:37.700Z,19.57
2017-11-05T07:40:04.357Z,17.77
2017-11-05T07:42:30.569Z,16.80
2017-11-05T07:44:56.784Z,17.17
2017-11-05T07:47:23.787Z,17.37
2017-11-05T07:49:50.157Z,17.67
2017-11-05T07:52:18.103Z,17.23
2017-11-05T07:54:45.928Z,16.80
2017-11-05T07:57:12.240Z,17.03
2017-11-05T07:59:38.572Z,15.97
2017-11-05T08:02:04.787Z,16.63
2017-11-05T08:04:31.219Z,17.57
2017-11-05T08:06:58.491Z,19.50
2017-11-05T08:09:26.171Z,16.77
2017-11-05T08:11:52.669Z,16.87
2017-11-05T08:14:19.242Z,9.10
2017-11-05T08:16:46.203Z,3.50
2017-11-05T08:19:12.815Z,2.20
2017-11-05T08:21:39.070Z,2.90
2017-11-05T08:24:05.502Z,1.60
2017-11-05T08:26:31.803Z,2.43
2017-11-05T08:28:58.386Z,1.83
2017-11-05T08:31:25.234Z,2.10
2017-11-05T08:33:51.422Z,2.13
2017-11-05T08:36:18.749Z,2.27
2017-11-05T08:38:45.024Z,1.90
2017-11-05T08:41:11.286Z,2.07
2017-11-05T08:43:37.542Z,2.23
2017-11-05T08:46:08.273Z,2.77
2017-11-05T08:48:35.132Z,2.43
2017-11-05T08:51:01.784Z,2.10
2017-11-05T08:53:28.116Z,1.73
2017-11-05T08:55:54.343Z,1.90
2017-11-05T08:58:21.093Z,2.13
2017-11-05T09:00:48.711Z,2.00
2017-11-05T09:03:22.165Z,1.87
2017-11-05T09:05:48.613Z,1.67
2017-11-05T09:08:14.828Z,2.00
2017-11-05T09:10:41.818Z,2.07
2017-11-05T09:13:08.624Z,2.37
2017-11-05T09:15:35.308Z,1.63
2017-11-05T09:18:02.360Z,2.17
2017-11-05T09:20:28.892Z,2.17
2017-11-05T09:22:55.995Z,1.90
2017-11-05T09:25:22.287Z,1.90
2017-11-05T09:27:48.511Z,2.40
2017-11-05T09:30:15.784Z,2.30
2017-11-05T09:32:42.882Z,1.70
2017-11-05T09:35:09.503Z,2.53
2017-11-05T09:37:35.743Z,2.47
2017-11-05T09:49:43.601Z,2.90
2017-11-05T09:52:09.761Z,2.60
2017-11-05T09:54:36.076Z,3.50
2017-11-05T09:57:02.320Z,3.23
2017-11-05T09:59:29.813Z,2.47
2017-11-05T10:01:56.825Z,2.60
2017-11-05T10:04:24.833Z,3.93
2017-11-05T10:06:54.818Z,2.53
2017-11-05T10:09:21.335Z,2.30
2017-11-05T10:11:47.927Z,2.30
2017-11-05T10:14:14.572Z,2.57
2017-11-05T10:16:40.863Z,4.00
2017-11-05T10:19:07.099Z,1.97
2017-11-05T10:21:33.894Z,3.17
2017-11-05T10:24:00.059Z,3.20
2017-11-05T10:26:27.175Z,2.97
2017-11-05T10:28:53.624Z,2.63
2017-11-05T10:31:20.637Z,2.97
2017-11-05T10:33:46.931Z,2.40
2017-11-05T10:36:13.176Z,3.43
2017-11-05T10:38:40.905Z,3.83
2017-11-05T10:41:10.387Z,2.17
2017-11-05T10:43:37.012Z,2.53
2017-11-05T10:46:04.970Z,2.53
2017-11-05T10:48:32.965Z,3.20
2017-11-05T10:50:59.900Z,1.80
2017-11-05T10:53:26.142Z,2.30
2017-11-05T10:55:52.479Z,2.70
2017-11-05T10:58:19.187Z,3.50
2017-11-05T11:00:45.577Z,4.73
2017-11-05T11:03:11.794Z,2.63
2017-11-05T11:05:38.180Z,2.50
2017-11-05T11:08:05.422Z,4.43
2017-11-05T11:10:33.284Z,2.77
2017-11-05T11:12:59.542Z,3.17
2017-11-05T11:15:25.786Z,2.40
2017-11-05T11:17:52.220Z,2.53
2017-11-05T11:20:18.504Z,2.73
2017-11-05T11:22:45.537Z,2.90
2017-11-05T11:25:11.783Z,1.90
2017-11-05T11:27:38.525Z,2.70
2017-11-05T11:30:05.580Z,3.30
2017-11-05T11:32:32.962Z,2.13
2017-11-05T11:34:59.225Z,2.50
2017-11-05T11:37:25.426Z,1.70
2017-11-05T11:39:51.656Z,1.60
2017-11-05T11:42:19.776Z,2.53
2017-11-05T11:44:46.489Z,2.93
2017-11-05T11:47:12.726Z,2.40
2017-11-05T11:49:38.909Z,2.63
2017-11-05T11:52:05.550Z,2.63
2017-11-05T11:54:32.163Z,2.63
2017-11-05T11:57:00.025Z,2.37
2017-11-05T11:59:27.369Z,3.13
2017-11-05T12:01:53.659Z,2.50
2017-11-05T12:04:21.410Z,2.83
2017-11-05T12:06:47.710Z,2.77
2017-11-05T12:18:55.434Z,2.20
2017-11-05T12:21:22.040Z,2.20
2017-11-05T12:23:48.682Z,2.30
2017-11-05T12:26:15.477Z,3.30
2017-11-05T12:28:41.725Z,2.33
2017-11-05T12:31:07.942Z,2.33
2017-11-05T12:33:34.481Z,2.63
2017-11-05T12:36:00.739Z,2.30
2017-11-05T12:38:27.358Z,2.47
2017-11-05T12:40:53.652Z,4.53
2017-11-05T12:43:20.190Z,3.17
2017-11-05T12:45:47.553Z,3.17
2017-11-05T12:48:14.313Z,4.93
2017-11-05T12:50:41.557Z,4.73
2017-11-05T12:53:07.791Z,3.87
2017-11-05T12:55:34.011Z,4.30
2017-11-05T12:58:00.266Z,3.70
2017-11-05T13:00:26.507Z,3.37
2017-11-05T13:02:52.803Z,4.53
2017-11-05T13:05:19.026Z,4.60
2017-11-05T13:07:45.238Z,5.20
2017-11-05T13:10:11.434Z,4.80
2017-11-05T13:12:37.652Z,5.30
2017-11-05T13:15:04.252Z,5.50
2017-11-05T13:17:30.502Z,4.23
2017-11-05T13:19:56.730Z,5.10
2017-11-05T13:22:23.746Z,5.60
2017-11-05T13:24:49.965Z,4.90
2017-11-05T13:27:17.309Z,5.47
2017-11-05T13:29:43.530Z,5.57
2017-11-05T13:32:09.710Z,4.80
2017-11-05T13:34:36.716Z,4.30
2017-11-05T13:37:02.977Z,5.00
2017-11-05T13:39:29.232Z,5.57
2017-11-05T13:41:56.202Z,5.30
2017-11-05T13:44:22.385Z,4.37
2017-11-05T13:46:48.638Z,5.43
2017-11-05T13:49:15.036Z,5.07
2017-11-05T13:51:42.071Z,6.13
2017-11-05T13:54:11.745Z,4.70
2017-11-05T13:56:39.745Z,6.43
2017-11-05T13:59:05.991Z,5.13
2017-11-05T14:01:32.248Z,7.47
2017-11-05T14:03:58.855Z,5.70
2017-11-05T14:06:25.802Z,5.47
2017-11-05T14:08:52.075Z,5.20
2017-11-05T14:11:18.272Z,6.37
2017-11-05T14:13:45.045Z,5.17
2017-11-05T14:16:12.818Z,4.93
2017-11-05T14:18:39.865Z,5.80
2017-11-05T14:21:07.074Z,5.87
2017-11-05T14:23:34.505Z,5.67
2017-11-05T14:26:00.706Z,6.00
2017-11-05T14:28:27.665Z,5.43
2017-11-05T14:30:54.662Z,5.10
2017-11-05T14:33:21.017Z,4.40
2017-11-05T14:35:47.307Z,5.07
2017-11-05T14:38:13.539Z,6.97
2017-11-05T14:40:40.676Z,4.47
2017-11-05T14:43:06.864Z,4.53
2017-11-05T14:45:33.187Z,4.57
2017-11-05T14:47:59.434Z,3.90
2017-11-05T14:50:25.692Z,5.00
2017-11-05T14:52:52.015Z,4.07
2017-11-05T14:55:18.316Z,4.97
2017-11-05T14:57:44.559Z,4.40
2017-11-05T15:00:10.872Z,4.03
2017-11-05T15:02:38.808Z,3.80
2017-11-05T15:05:05.180Z,5.33
2017-11-05T15:07:31.442Z,3.70
2017-11-05T15:09:57.654Z,3.43
2017-11-05T15:12:24.734Z,4.70
2017-11-05T15:14:51.554Z,5.50
2017-11-05T15:17:17.817Z,4.60
2017-11-05T15:19:45.543Z,3.50
2017-11-05T15:22:11.794Z,3.47
2017-11-05T15:24:38.761Z,3.83
2017-11-05T15:27:05.793Z,3.93
2017-11-05T15:29:32.008Z,3.83
2017-11-05T15:31:58.325Z,3.73
2017-11-05T15:34:24.597Z,4.43
2017-11-05T15:36:52.002Z,3.30
2017-11-05T15:39:18.689Z,3.73
2017-11-05T15:41:45.087Z,4.00
2017-11-05T15:44:11.439Z,3.23
2017-11-05T15:46:37.670Z,3.40
2017-11-05T15:49:04.824Z,3.47
2017-11-05T15:51:33.131Z,5.40
2017-11-05T15:54:00.145Z,4.80
2017-11-05T15:56:28.233Z,5.10
2017-11-05T15:58:54.624Z,4.23
2017-11-05T16:01:22.261Z,4.27
2017-11-05T16:03:48.849Z,5.10
2017-11-05T16:06:15.093Z,4.30
2017-11-05T16:08:43.097Z,3.97
2017-11-05T16:11:10.375Z,6.67
2017-11-05T16:13:36.563Z,4.37
2017-11-05T16:16:03.001Z,5.80
2017-11-05T16:18:29.489Z,5.90
2017-11-05T16:20:58.700Z,4.00
2017-11-05T16:23:25.845Z,4.37
2017-11-05T16:25:52.428Z,4.70
2017-11-05T16:28:19.213Z,5.33
2017-11-05T16:30:46.407Z,6.30
2017-11-05T16:33:13.425Z,5.07
2017-11-05T16:35:39.925Z,4.33
2017-11-05T16:38:07.254Z,3.40
2017-11-05T16:40:34.282Z,4.70
2017-11-05T16:43:01.780Z,4.97
2017-11-05T16:45:28.005Z,7.30
2017-11-05T16:47:55.061Z,5.90
2017-11-05T16:50:21.642Z,6.30
2017-11-05T16:52:47.854Z,4.20
2017-11-05T16:55:15.135Z,3.77
2017-11-05T16:57:41.332Z,5.60
2017-11-05T17:03:00.439Z,4.37
2017-11-05T17:05:26.680Z,5.10
2017-11-05T17:07:53.050Z,5.70
2017-11-05T17:10:19.317Z,6.70
2017-11-05T17:12:45.584Z,6.23
2017-11-05T17:15:12.216Z,5.40
2017-11-05T17:27:18.504Z,4.13
2017-11-05T17:29:45.899Z,5.67
2017-11-05T17:32:13.094Z,4.60
2017-11-05T17:34:40.348Z,4.27
2017-11-05T17:37:06.585Z,4.20
2017-11-05T17:39:32.907Z,4.77
2017-11-05T17:41:59.871Z,3.70
2017-11-05T17:44:26.100Z,4.90
2017-11-05T17:46:52.310Z,7.60
2017-11-05T17:49:18.553Z,6.70
2017-11-05T17:51:44.858Z,4.60
2017-11-05T17:54:11.467Z,3.93
2017-11-05T17:56:37.914Z,5.20
2017-11-05T17:59:04.161Z,4.10
2017-11-05T18:01:30.394Z,4.77
2017-11-05T18:03:57.608Z,4.70
2017-11-05T18:06:23.828Z,4.90
2017-11-05T18:08:52.511Z,5.70
2017-11-05T18:11:18.738Z,4.30
2017-11-05T18:13:45.694Z,6.50
2017-11-05T18:16:13.956Z,4.03
2017-11-05T18:18:41.328Z,5.10
2017-11-05T18:21:08.272Z,4.17
2017-11-05T18:23:34.519Z,5.37
2017-11-05T18:26:00.786Z,4.37
2017-11-05T18:28:27.025Z,4.20
2017-11-05T18:30:53.565Z,3.93
2017-11-05T18:33:20.212Z,4.60
2017-11-05T18:35:46.444Z,4.40
2017-11-05T18:38:12.680Z,3.97
2017-11-05T18:40:39.760Z,3.83
2017-11-05T18:43:06.809Z,4.83
2017-11-05T18:45:44.030Z,4.10
2017-11-05T18:48:11.002Z,3.73
2017-11-05T18:50:37.258Z,4.10
2017-11-05T18:53:03.462Z,4.90
2017-11-05T18:55:30.160Z,3.70
2017-11-05T18:57:56.375Z,3.47
2017-11-05T19:00:23.437Z,4.27
2017-11-05T19:02:50.389Z,3.50
2017-11-05T19:05:16.632Z,4.60
2017-11-05T19:07:43.058Z,5.80
2017-11-05T19:10:09.738Z,4.50
2017-11-05T19:22:16.436Z,3.33
2017-11-05T19:24:44.475Z,4.37
2017-11-05T19:27:11.132Z,4.17
2017-11-05T19:29:37.457Z,4.00
2017-11-05T19:32:04.572Z,6.10
2017-11-05T19:34:31.893Z,6.20
2017-11-05T19:36:59.949Z,9.53
2017-11-05T19:39:28.500Z,5.37
2017-11-05T19:41:56.016Z,5.80
2017-11-05T19:44:23.124Z,6.10
2017-11-05T19:46:49.342Z,5.23
2017-11-05T19:49:15.838Z,4.17
2017-11-05T19:51:43.625Z,6.30
2017-11-05T19:54:11.138Z,5.00
2017-11-05T19:56:37.463Z,6.53
2017-11-05T19:59:03.770Z,4.93
2017-11-05T20:01:31.772Z,7.03
2017-11-05T20:03:57.952Z,4.43
2017-11-05T20:06:24.148Z,5.60
2017-11-05T20:08:50.417Z,6.77
2017-11-05T20:20:59.052Z,5.50
2017-11-05T20:23:27.339Z,5.50
2017-11-05T20:25:53.973Z,6.13
2017-11-05T20:28:20.876Z,6.53
2017-11-05T20:30:47.522Z,6.43
2017-11-05T20:33:15.562Z,5.70
2017-11-05T20:35:42.217Z,5.23
2017-11-05T20:38:08.552Z,6.00
2017-11-05T20:40:36.632Z,5.13
2017-11-05T20:43:03.462Z,5.70
2017-11-05T20:45:33.039Z,5.20
2017-11-05T20:47:59.695Z,7.00
2017-11-05T20:50:26.013Z,5.93
2017-11-05T20:52:55.737Z,6.10
2017-11-05T20:55:23.340Z,5.70
2017-11-05T20:57:50.453Z,5.83
2017-11-05T21:00:16.905Z,6.67
2017-11-05T21:02:44.597Z,7.03
2017-11-05T21:05:11.062Z,6.80
2017-11-05T21:07:38.649Z,8.10
2017-11-05T21:10:05.016Z,7.70
2017-11-05T21:12:32.332Z,6.83
2017-11-05T21:15:00.290Z,6.53
2017-11-05T21:17:27.172Z,7.30
2017-11-05T21:19:54.503Z,6.47
2017-11-05T21:22:21.555Z,7.40
2017-11-05T21:24:49.638Z,5.73
2017-11-05T21:27:17.999Z,7.17
2017-11-05T21:29:44.233Z,8.10
2017-11-05T21:32:13.168Z,6.30
2017-11-05T21:34:42.534Z,7.93
2017-11-05T21:37:10.034Z,7.07
2017-11-05T21:39:37.891Z,8.10
2017-11-05T21:42:05.855Z,6.50
2017-11-05T21:44:32.698Z,5.90
2017-11-05T21:47:00.745Z,6.43
2017-11-05T21:49:28.338Z,5.50
2017-11-05T21:51:55.449Z,7.20
2017-11-05T21:54:21.753Z,7.10
2017-11-05T21:56:48.036Z,6.93
2017-11-05T21:59:14.582Z,7.43
2017-11-05T22:01:40.801Z,7.60
2017-11-05T22:04:07.372Z,7.23
2017-11-05T22:06:33.623Z,6.90
2017-11-05T22:09:00.723Z,7.50
2017-11-05T22:11:27.378Z,6.83
2017-11-05T22:13:53.999Z,6.97
2017-11-05T22:16:20.252Z,7.43
2017-11-05T22:18:46.540Z,6.73
2017-11-05T22:21:12.777Z,6.77
2017-11-05T22:23:39.006Z,8.07
2017-11-05T22:26:05.162Z,6.60
2017-11-05T22:28:31.355Z,6.50
2017-11-05T22:30:58.727Z,9.83
2017-11-05T22:33:26.789Z,8.07
2017-11-05T22:35:52.995Z,6.63
2017-11-05T22:38:19.210Z,7.10
2017-11-05T22:40:46.014Z,6.30
2017-11-05T22:43:12.273Z,9.00
2017-11-05T22:45:38.947Z,6.90
2017-11-05T22:48:05.272Z,7.40
2017-11-05T22:50:31.793Z,6.63
2017-11-05T22:52:58.011Z,7.23
2017-11-05T22:55:25.134Z,8.50
2017-11-05T22:57:52.438Z,6.00
2017-11-05T23:00:18.975Z,7.13
2017-11-05T23:02:46.052Z,7.90
2017-11-05T23:05:12.972Z,8.10
2017-11-05T23:07:40.412Z,7.43
2017-11-05T23:10:07.756Z,8.13
2017-11-05T23:12:33.967Z,6.87
2017-11-05T23:15:00.776Z,7.13
2017-11-05T23:17:28.756Z,7.33
2017-11-05T23:19:54.991Z,6.83
2017-11-05T23:22:21.168Z,7.10
2017-11-05T23:24:49.700Z,6.77
2017-11-05T23:27:15.902Z,7.27
2017-11-05T23:29:42.256Z,8.20
2017-11-05T23:32:08.884Z,6.40
2017-11-05T23:34:35.836Z,6.80
2017-11-05T23:37:02.815Z,8.80
2017-11-05T23:39:29.093Z,6.97
2017-11-05T23:51:35.369Z,6.47
2017-11-05T23:54:02.218Z,7.20
2017-11-05T23:56:29.572Z,8.57
2017-11-05T23:58:55.815Z,7.77
